sensor_id;sensor_type;location;lat;lon;timestamp;temperature;humidity
831;DHT22;397;50.564;7.272;2023-05-10T00:00:04;14.70;99.90
831;DHT22;397;50.564;7.272;2023-05-10T00:02:32;14.80;99.90
831;DHT22;397;50.564;7.272;2023-05-10T00:05:00;14.60;99.90
831;DHT22;397;50.564;7.272;2023-05-10T00:07:28;14.50;99.90
831;DHT22;397;50.564;7.272;2023-05-10T00:09:56;14.60;99.90
831;DHT22;397;50.564;7.272;2023-05-10T00:12:23;14.50;99.90
831;DHT22;397;50.564;7.272;2023-05-10T00:14:51;14.60;99.90
831;DHT22;397;50.564;7.272;2023-05-10T00:17:18;14.60;99.90
831;DHT22;397;50.564;7.272;2023-05-10T00:19:46;14.60;99.90
831;DHT22;397;50.564;7.272;2023-05-10T00:22:13;14.60;99.90
831;DHT22;397;50.564;7.272;2023-05-10T00:24:41;14.70;99.90
831;DHT22;397;50.564;7.272;2023-05-10T00:27:08;14.70;99.90
831;DHT22;397;50.564;7.272;2023-05-10T00:29:36;14.50;99.90
831;DHT22;397;50.564;7.272;2023-05-10T00:32:03;14.50;99.90
831;DHT22;397;50.564;7.272;2023-05-10T00:34:31;14.50;99.90
831;DHT22;397;50.564;7.272;2023-05-10T00:36:59;14.50;99.90
831;DHT22;397;50.564;7.272;2023-05-10T00:39:26;14.60;99.90
831;DHT22;397;50.564;7.272;2023-05-10T00:41:55;14.60;99.90
831;DHT22;397;50.564;7.272;2023-05-10T00:44:22;14.60;99.90
831;DHT22;397;50.564;7.272;2023-05-10T00:46:50;14.60;99.90
831;DHT22;397;50.564;7.272;2023-05-10T00:49:18;14.60;99.90
831;DHT22;397;50.564;7.272;2023-05-10T00:51:46;14.70;99.90
831;DHT22;397;50.564;7.272;2023-05-10T00:54:14;14.60;99.90
831;DHT22;397;50.564;7.272;2023-05-10T00:56:42;14.60;99.90
831;DHT22;397;50.564;7.272;2023-05-10T00:59:11;14.70;99.90
831;DHT22;397;50.564;7.272;2023-05-10T01:01:39;14.70;99.90
831;DHT22;397;50.564;7.272;2023-05-10T01:04:07;14.70;99.90
831;DHT22;397;50.564;7.272;2023-05-10T01:06:35;14.70;99.90
831;DHT22;397;50.564;7.272;2023-05-10T01:09:03;14.70;99.90
831;DHT22;397;50.564;7.272;2023-05-10T01:11:30;14.60;99.90
831;DHT22;397;50.564;7.272;2023-05-10T01:13:59;14.60;99.90
831;DHT22;397;50.564;7.272;2023-05-10T01:16:28;14.50;99.90
831;DHT22;397;50.564;7.272;2023-05-10T01:18:56;14.50;99.90
831;DHT22;397;50.564;7.272;2023-05-10T01:21:28;14.50;99.90
831;DHT22;397;50.564;7.272;2023-05-10T01:32:20;14.50;99.90
831;DHT22;397;50.564;7.272;2023-05-10T01:34:58;14.40;99.90
831;DHT22;397;50.564;7.272;2023-05-10T01:37:29;14.20;99.90
831;DHT22;397;50.564;7.272;2023-05-10T01:40:22;14.30;99.90
831;DHT22;397;50.564;7.272;2023-05-10T01:42:52;14.30;99.90
831;DHT22;397;50.564;7.272;2023-05-10T01:45:47;14.30;99.90
831;DHT22;397;50.564;7.272;2023-05-10T01:48:11;14.30;99.90
831;DHT22;397;50.564;7.272;2023-05-10T01:50:43;14.30;99.90
831;DHT22;397;50.564;7.272;2023-05-10T01:53:12;14.30;99.90
831;DHT22;397;50.564;7.272;2023-05-10T01:55:46;14.40;99.90
831;DHT22;397;50.564;7.272;2023-05-10T01:58:23;14.50;99.90
831;DHT22;397;50.564;7.272;2023-05-10T02:00:51;14.40;99.90
831;DHT22;397;50.564;7.272;2023-05-10T02:03:22;14.40;99.90
831;DHT22;397;50.564;7.272;2023-05-10T02:05:51;14.40;99.90
831;DHT22;397;50.564;7.272;2023-05-10T02:08:19;14.40;99.90
831;DHT22;397;50.564;7.272;2023-05-10T02:10:51;14.40;99.90
831;DHT22;397;50.564;7.272;2023-05-10T02:13:19;14.40;99.90
831;DHT22;397;50.564;7.272;2023-05-10T02:15:48;14.50;99.90
831;DHT22;397;50.564;7.272;2023-05-10T02:18:17;14.40;99.90
831;DHT22;397;50.564;7.272;2023-05-10T02:20:46;14.40;99.90
831;DHT22;397;50.564;7.272;2023-05-10T02:23:15;14.40;99.90
831;DHT22;397;50.564;7.272;2023-05-10T02:25:45;14.30;99.90
831;DHT22;397;50.564;7.272;2023-05-10T02:28:15;14.20;99.90
831;DHT22;397;50.564;7.272;2023-05-10T02:30:43;14.20;99.90
831;DHT22;397;50.564;7.272;2023-05-10T02:33:11;14.20;99.90
831;DHT22;397;50.564;7.272;2023-05-10T02:35:39;14.20;99.90
831;DHT22;397;50.564;7.272;2023-05-10T02:38:09;14.10;99.90
831;DHT22;397;50.564;7.272;2023-05-10T02:40:38;14.10;99.90
831;DHT22;397;50.564;7.272;2023-05-10T02:43:12;14.20;99.90
831;DHT22;397;50.564;7.272;2023-05-10T02:45:40;14.20;99.90
831;DHT22;397;50.564;7.272;2023-05-10T02:48:09;14.20;99.90
831;DHT22;397;50.564;7.272;2023-05-10T02:50:37;14.20;99.90
831;DHT22;397;50.564;7.272;2023-05-10T02:53:11;14.30;99.90
831;DHT22;397;50.564;7.272;2023-05-10T02:55:41;14.20;99.90
831;DHT22;397;50.564;7.272;2023-05-10T02:58:09;14.20;99.90
831;DHT22;397;50.564;7.272;2023-05-10T03:00:36;14.10;99.90
831;DHT22;397;50.564;7.272;2023-05-10T03:03:04;14.20;99.90
831;DHT22;397;50.564;7.272;2023-05-10T03:05:31;14.10;99.90
831;DHT22;397;50.564;7.272;2023-05-10T03:07:59;14.10;99.90
831;DHT22;397;50.564;7.272;2023-05-10T03:10:30;14.20;99.90
831;DHT22;397;50.564;7.272;2023-05-10T03:18:28;14.20;99.90
831;DHT22;397;50.564;7.272;2023-05-10T03:20:57;14.30;99.90
831;DHT22;397;50.564;7.272;2023-05-10T03:25:55;14.20;99.90
831;DHT22;397;50.564;7.272;2023-05-10T03:28:25;14.20;99.90
831;DHT22;397;50.564;7.272;2023-05-10T03:30:54;14.20;99.90
831;DHT22;397;50.564;7.272;2023-05-10T03:33:22;14.30;99.90
831;DHT22;397;50.564;7.272;2023-05-10T03:35:49;14.30;99.90
831;DHT22;397;50.564;7.272;2023-05-10T03:38:17;14.10;99.90
831;DHT22;397;50.564;7.272;2023-05-10T03:40:44;14.10;99.90
831;DHT22;397;50.564;7.272;2023-05-10T03:43:12;14.10;99.90
831;DHT22;397;50.564;7.272;2023-05-10T03:45:39;14.10;99.90
831;DHT22;397;50.564;7.272;2023-05-10T03:48:07;14.20;99.90
831;DHT22;397;50.564;7.272;2023-05-10T03:50:34;14.10;99.90
831;DHT22;397;50.564;7.272;2023-05-10T03:53:02;14.00;99.90
831;DHT22;397;50.564;7.272;2023-05-10T03:55:29;14.20;99.90
831;DHT22;397;50.564;7.272;2023-05-10T03:57:59;14.10;99.90
831;DHT22;397;50.564;7.272;2023-05-10T04:00:26;14.10;99.90
831;DHT22;397;50.564;7.272;2023-05-10T04:02:53;14.10;99.90
831;DHT22;397;50.564;7.272;2023-05-10T04:05:21;14.20;99.90
831;DHT22;397;50.564;7.272;2023-05-10T04:07:48;14.10;99.90
831;DHT22;397;50.564;7.272;2023-05-10T04:10:17;14.20;99.90
831;DHT22;397;50.564;7.272;2023-05-10T04:12:44;14.20;99.90
831;DHT22;397;50.564;7.272;2023-05-10T04:15:12;14.20;99.90
831;DHT22;397;50.564;7.272;2023-05-10T04:17:39;14.20;99.90
831;DHT22;397;50.564;7.272;2023-05-10T04:20:08;14.10;99.90
831;DHT22;397;50.564;7.272;2023-05-10T04:22:35;14.10;99.90
831;DHT22;397;50.564;7.272;2023-05-10T04:25:05;14.10;99.90
831;DHT22;397;50.564;7.272;2023-05-10T04:27:52;14.20;99.90
831;DHT22;397;50.564;7.272;2023-05-10T04:30:19;14.10;99.90
831;DHT22;397;50.564;7.272;2023-05-10T04:32:47;14.10;99.90
831;DHT22;397;50.564;7.272;2023-05-10T04:35:14;14.20;99.90
831;DHT22;397;50.564;7.272;2023-05-10T04:37:42;14.10;99.90
831;DHT22;397;50.564;7.272;2023-05-10T04:40:10;14.10;99.90
831;DHT22;397;50.564;7.272;2023-05-10T04:42:42;14.00;99.90
831;DHT22;397;50.564;7.272;2023-05-10T04:45:10;14.00;99.90
831;DHT22;397;50.564;7.272;2023-05-10T04:47:38;13.90;99.90
831;DHT22;397;50.564;7.272;2023-05-10T04:50:06;13.80;99.90
831;DHT22;397;50.564;7.272;2023-05-10T04:52:34;13.90;99.90
831;DHT22;397;50.564;7.272;2023-05-10T04:55:03;14.10;99.90
831;DHT22;397;50.564;7.272;2023-05-10T04:57:30;14.10;99.90
831;DHT22;397;50.564;7.272;2023-05-10T04:59:59;14.20;99.90
831;DHT22;397;50.564;7.272;2023-05-10T05:02:26;14.10;99.90
831;DHT22;397;50.564;7.272;2023-05-10T05:04:56;14.20;99.90
831;DHT22;397;50.564;7.272;2023-05-10T05:07:24;14.30;99.90
831;DHT22;397;50.564;7.272;2023-05-10T05:09:51;14.20;99.90
831;DHT22;397;50.564;7.272;2023-05-10T05:12:19;14.20;99.90
831;DHT22;397;50.564;7.272;2023-05-10T05:14:46;14.20;99.90
831;DHT22;397;50.564;7.272;2023-05-10T05:17:14;14.40;99.90
831;DHT22;397;50.564;7.272;2023-05-10T05:19:41;14.50;99.90
831;DHT22;397;50.564;7.272;2023-05-10T05:22:09;14.60;99.90
831;DHT22;397;50.564;7.272;2023-05-10T05:24:37;14.60;99.90
831;DHT22;397;50.564;7.272;2023-05-10T05:27:07;14.60;99.90
831;DHT22;397;50.564;7.272;2023-05-10T05:29:35;14.60;99.90
831;DHT22;397;50.564;7.272;2023-05-10T05:32:03;14.50;99.90
831;DHT22;397;50.564;7.272;2023-05-10T05:34:30;14.60;99.90
831;DHT22;397;50.564;7.272;2023-05-10T05:36:58;14.50;99.90
831;DHT22;397;50.564;7.272;2023-05-10T05:39:25;14.60;99.90
831;DHT22;397;50.564;7.272;2023-05-10T05:41:53;14.50;99.90
831;DHT22;397;50.564;7.272;2023-05-10T05:44:20;14.50;99.90
831;DHT22;397;50.564;7.272;2023-05-10T05:46:48;14.60;99.90
831;DHT22;397;50.564;7.272;2023-05-10T05:49:15;14.40;99.90
831;DHT22;397;50.564;7.272;2023-05-10T05:51:43;14.60;99.90
831;DHT22;397;50.564;7.272;2023-05-10T05:54:11;14.70;99.90
831;DHT22;397;50.564;7.272;2023-05-10T05:56:38;14.80;99.90
831;DHT22;397;50.564;7.272;2023-05-10T05:59:06;14.80;99.90
831;DHT22;397;50.564;7.272;2023-05-10T06:01:34;14.90;99.90
831;DHT22;397;50.564;7.272;2023-05-10T06:04:02;15.00;99.90
831;DHT22;397;50.564;7.272;2023-05-10T06:06:29;15.10;99.90
831;DHT22;397;50.564;7.272;2023-05-10T06:08:58;15.30;99.90
831;DHT22;397;50.564;7.272;2023-05-10T06:11:26;15.40;99.90
831;DHT22;397;50.564;7.272;2023-05-10T06:13:53;15.30;99.90
831;DHT22;397;50.564;7.272;2023-05-10T06:16:21;15.50;99.90
831;DHT22;397;50.564;7.272;2023-05-10T06:18:48;15.60;99.90
831;DHT22;397;50.564;7.272;2023-05-10T06:21:16;15.70;99.90
831;DHT22;397;50.564;7.272;2023-05-10T06:23:43;15.70;99.90
831;DHT22;397;50.564;7.272;2023-05-10T06:26:11;15.60;99.90
831;DHT22;397;50.564;7.272;2023-05-10T06:28:40;15.70;99.90
831;DHT22;397;50.564;7.272;2023-05-10T06:31:07;15.90;99.90
831;DHT22;397;50.564;7.272;2023-05-10T06:33:35;15.70;99.90
831;DHT22;397;50.564;7.272;2023-05-10T06:36:03;15.80;99.90
831;DHT22;397;50.564;7.272;2023-05-10T06:38:30;16.20;99.90
831;DHT22;397;50.564;7.272;2023-05-10T06:40:58;16.30;99.90
831;DHT22;397;50.564;7.272;2023-05-10T06:43:26;16.20;99.90
831;DHT22;397;50.564;7.272;2023-05-10T06:45:55;15.90;99.90
831;DHT22;397;50.564;7.272;2023-05-10T06:48:22;15.80;99.90
831;DHT22;397;50.564;7.272;2023-05-10T06:50:49;15.80;99.90
831;DHT22;397;50.564;7.272;2023-05-10T06:53:17;15.70;99.90
831;DHT22;397;50.564;7.272;2023-05-10T06:55:45;16.00;99.90
831;DHT22;397;50.564;7.272;2023-05-10T06:58:12;16.20;99.90
831;DHT22;397;50.564;7.272;2023-05-10T07:00:40;16.20;99.90
831;DHT22;397;50.564;7.272;2023-05-10T07:03:10;16.30;99.90
831;DHT22;397;50.564;7.272;2023-05-10T07:05:38;16.00;99.90
831;DHT22;397;50.564;7.272;2023-05-10T07:08:05;16.10;99.90
831;DHT22;397;50.564;7.272;2023-05-10T07:10:33;15.90;99.90
831;DHT22;397;50.564;7.272;2023-05-10T07:13:00;15.80;99.90
831;DHT22;397;50.564;7.272;2023-05-10T07:15:28;15.90;99.90
831;DHT22;397;50.564;7.272;2023-05-10T07:17:55;15.90;99.90
831;DHT22;397;50.564;7.272;2023-05-10T07:20:23;16.10;99.90
831;DHT22;397;50.564;7.272;2023-05-10T07:22:51;16.20;99.90
831;DHT22;397;50.564;7.272;2023-05-10T07:25:18;16.30;99.90
831;DHT22;397;50.564;7.272;2023-05-10T07:27:45;16.10;99.90
831;DHT22;397;50.564;7.272;2023-05-10T07:30:15;15.90;99.90
831;DHT22;397;50.564;7.272;2023-05-10T07:32:42;16.00;99.90
831;DHT22;397;50.564;7.272;2023-05-10T07:35:09;15.90;99.90
831;DHT22;397;50.564;7.272;2023-05-10T07:37:37;15.90;99.90
831;DHT22;397;50.564;7.272;2023-05-10T07:40:05;16.10;99.90
831;DHT22;397;50.564;7.272;2023-05-10T07:42:34;16.20;99.90
831;DHT22;397;50.564;7.272;2023-05-10T07:45:01;16.00;99.90
831;DHT22;397;50.564;7.272;2023-05-10T07:47:29;16.10;99.90
831;DHT22;397;50.564;7.272;2023-05-10T07:49:56;16.00;99.90
831;DHT22;397;50.564;7.272;2023-05-10T07:52:24;16.00;99.90
831;DHT22;397;50.564;7.272;2023-05-10T07:54:51;16.10;99.90
831;DHT22;397;50.564;7.272;2023-05-10T07:57:19;16.10;99.90
831;DHT22;397;50.564;7.272;2023-05-10T07:59:47;16.20;99.90
831;DHT22;397;50.564;7.272;2023-05-10T08:02:14;16.30;99.90
831;DHT22;397;50.564;7.272;2023-05-10T08:04:42;16.40;99.90
831;DHT22;397;50.564;7.272;2023-05-10T08:07:09;16.10;99.90
831;DHT22;397;50.564;7.272;2023-05-10T08:09:37;16.00;99.90
831;DHT22;397;50.564;7.272;2023-05-10T08:12:05;16.40;99.90
831;DHT22;397;50.564;7.272;2023-05-10T08:14:32;16.60;99.90
831;DHT22;397;50.564;7.272;2023-05-10T22:18:05;13.30;99.90
831;DHT22;397;50.564;7.272;2023-05-10T22:20:32;13.40;99.90
831;DHT22;397;50.564;7.272;2023-05-10T22:23:00;13.50;99.90
831;DHT22;397;50.564;7.272;2023-05-10T22:25:27;13.50;99.90
831;DHT22;397;50.564;7.272;2023-05-10T22:27:55;13.50;99.90
831;DHT22;397;50.564;7.272;2023-05-10T22:30:22;13.50;99.90
831;DHT22;397;50.564;7.272;2023-05-10T22:32:50;13.50;99.90
831;DHT22;397;50.564;7.272;2023-05-10T22:35:17;13.50;99.90
831;DHT22;397;50.564;7.272;2023-05-10T22:37:45;13.50;99.90
831;DHT22;397;50.564;7.272;2023-05-10T22:40:12;13.50;99.90
831;DHT22;397;50.564;7.272;2023-05-10T22:42:40;13.50;99.90
831;DHT22;397;50.564;7.272;2023-05-10T22:45:08;13.40;99.90
831;DHT22;397;50.564;7.272;2023-05-10T22:47:35;13.10;99.90
831;DHT22;397;50.564;7.272;2023-05-10T22:50:03;13.00;99.90
831;DHT22;397;50.564;7.272;2023-05-10T22:52:31;12.80;99.90
831;DHT22;397;50.564;7.272;2023-05-10T22:54:58;12.90;99.90
831;DHT22;397;50.564;7.272;2023-05-10T22:57:26;12.80;99.90
831;DHT22;397;50.564;7.272;2023-05-10T22:59:53;12.70;99.90
831;DHT22;397;50.564;7.272;2023-05-10T23:02:21;12.70;99.90
831;DHT22;397;50.564;7.272;2023-05-10T23:04:48;12.70;99.90
831;DHT22;397;50.564;7.272;2023-05-10T23:07:16;12.80;99.90
831;DHT22;397;50.564;7.272;2023-05-10T23:09:43;12.70;99.90
831;DHT22;397;50.564;7.272;2023-05-10T23:12:11;12.80;99.90
831;DHT22;397;50.564;7.272;2023-05-10T23:14:39;12.60;99.90
831;DHT22;397;50.564;7.272;2023-05-10T23:17:07;12.60;99.90
831;DHT22;397;50.564;7.272;2023-05-10T23:19:35;12.70;99.90
831;DHT22;397;50.564;7.272;2023-05-10T23:22:02;12.70;99.90
831;DHT22;397;50.564;7.272;2023-05-10T23:24:30;12.60;99.90
831;DHT22;397;50.564;7.272;2023-05-10T23:26:57;12.60;99.90
831;DHT22;397;50.564;7.272;2023-05-10T23:29:25;12.60;99.90
831;DHT22;397;50.564;7.272;2023-05-10T23:31:52;12.60;99.90
831;DHT22;397;50.564;7.272;2023-05-10T23:34:20;12.60;99.90
831;DHT22;397;50.564;7.272;2023-05-10T23:36:47;12.50;99.90
831;DHT22;397;50.564;7.272;2023-05-10T23:39:14;12.50;99.90
831;DHT22;397;50.564;7.272;2023-05-10T23:41:42;12.60;99.90
831;DHT22;397;50.564;7.272;2023-05-10T23:44:10;12.60;99.90
831;DHT22;397;50.564;7.272;2023-05-10T23:46:37;12.60;99.90
831;DHT22;397;50.564;7.272;2023-05-10T23:49:05;12.60;99.90
831;DHT22;397;50.564;7.272;2023-05-10T23:51:32;12.60;99.90
831;DHT22;397;50.564;7.272;2023-05-10T23:54:00;12.60;99.90
831;DHT22;397;50.564;7.272;2023-05-10T23:56:27;12.50;99.90
831;DHT22;397;50.564;7.272;2023-05-10T23:58:55;12.60;99.90
